sensor_id;sensor_type;location;lat;lon;timestamp;P1;durP1;ratioP1;P2;durP2;ratioP2
62788;SDS011;66401;42.016;21.454;2023-12-07T00:01:26;55.63;;;28.43;;
62788;SDS011;66401;42.016;21.454;2023-12-07T00:03:51;57.70;;;31.20;;
62788;SDS011;66401;42.016;21.454;2023-12-07T00:06:17;64.97;;;32.10;;
62788;SDS011;66401;42.016;21.454;2023-12-07T00:08:43;57.90;;;30.17;;
62788;SDS011;66401;42.016;21.454;2023-12-07T00:11:10;59.03;;;32.43;;
62788;SDS011;66401;42.016;21.454;2023-12-07T00:13:35;60.27;;;30.20;;
62788;SDS011;66401;42.016;21.454;2023-12-07T00:16:01;53.57;;;29.80;;
62788;SDS011;66401;42.016;21.454;2023-12-07T00:18:27;55.53;;;29.20;;
62788;SDS011;66401;42.016;21.454;2023-12-07T00:20:55;48.67;;;27.83;;
62788;SDS011;66401;42.016;21.454;2023-12-07T00:23:21;49.67;;;28.10;;
62788;SDS011;66401;42.016;21.454;2023-12-07T00:25:46;52.17;;;26.30;;
62788;SDS011;66401;42.016;21.454;2023-12-07T00:28:12;43.77;;;25.20;;
62788;SDS011;66401;42.016;21.454;2023-12-07T00:30:39;48.27;;;26.13;;
62788;SDS011;66401;42.016;21.454;2023-12-07T00:33:07;43.57;;;24.93;;
62788;SDS011;66401;42.016;21.454;2023-12-07T00:35:34;45.83;;;25.80;;
62788;SDS011;66401;42.016;21.454;2023-12-07T00:38:01;46.90;;;24.90;;
62788;SDS011;66401;42.016;21.454;2023-12-07T00:40:28;76.13;;;31.50;;
62788;SDS011;66401;42.016;21.454;2023-12-07T00:42:56;52.93;;;27.80;;
62788;SDS011;66401;42.016;21.454;2023-12-07T00:45:23;54.70;;;28.33;;
62788;SDS011;66401;42.016;21.454;2023-12-07T00:47:49;48.50;;;26.87;;
62788;SDS011;66401;42.016;21.454;2023-12-07T00:50:14;51.83;;;25.50;;
62788;SDS011;66401;42.016;21.454;2023-12-07T00:52:40;48.93;;;25.77;;
62788;SDS011;66401;42.016;21.454;2023-12-07T00:55:06;54.43;;;30.03;;
62788;SDS011;66401;42.016;21.454;2023-12-07T00:57:32;53.63;;;29.87;;
62788;SDS011;66401;42.016;21.454;2023-12-07T00:59:58;60.80;;;30.13;;
62788;SDS011;66401;42.016;21.454;2023-12-07T01:02:25;49.03;;;26.87;;
62788;SDS011;66401;42.016;21.454;2023-12-07T01:04:50;53.23;;;27.37;;
62788;SDS011;66401;42.016;21.454;2023-12-07T01:07:16;55.07;;;28.50;;
62788;SDS011;66401;42.016;21.454;2023-12-07T01:09:41;54.27;;;27.70;;
62788;SDS011;66401;42.016;21.454;2023-12-07T01:12:06;52.77;;;30.07;;
62788;SDS011;66401;42.016;21.454;2023-12-07T01:14:32;59.17;;;30.33;;
62788;SDS011;66401;42.016;21.454;2023-12-07T01:16:57;48.13;;;26.70;;
62788;SDS011;66401;42.016;21.454;2023-12-07T01:19:23;58.23;;;29.37;;
62788;SDS011;66401;42.016;21.454;2023-12-07T01:21:50;52.33;;;29.37;;
62788;SDS011;66401;42.016;21.454;2023-12-07T01:24:16;54.53;;;28.60;;
62788;SDS011;66401;42.016;21.454;2023-12-07T01:26:44;52.93;;;28.40;;
62788;SDS011;66401;42.016;21.454;2023-12-07T01:29:09;55.50;;;28.13;;
62788;SDS011;66401;42.016;21.454;2023-12-07T01:31:35;56.40;;;27.37;;
62788;SDS011;66401;42.016;21.454;2023-12-07T01:34:00;53.50;;;27.63;;
62788;SDS011;66401;42.016;21.454;2023-12-07T01:36:26;50.67;;;28.37;;
62788;SDS011;66401;42.016;21.454;2023-12-07T01:38:51;49.97;;;29.00;;
62788;SDS011;66401;42.016;21.454;2023-12-07T01:41:17;56.33;;;29.80;;
62788;SDS011;66401;42.016;21.454;2023-12-07T01:43:46;59.03;;;30.30;;
62788;SDS011;66401;42.016;21.454;2023-12-07T01:46:12;56.37;;;31.73;;
62788;SDS011;66401;42.016;21.454;2023-12-07T01:48:39;54.63;;;29.93;;
62788;SDS011;66401;42.016;21.454;2023-12-07T01:51:04;57.70;;;31.63;;
62788;SDS011;66401;42.016;21.454;2023-12-07T01:53:32;56.83;;;30.87;;
62788;SDS011;66401;42.016;21.454;2023-12-07T01:55:58;57.90;;;29.63;;
62788;SDS011;66401;42.016;21.454;2023-12-07T01:58:24;58.53;;;29.43;;
62788;SDS011;66401;42.016;21.454;2023-12-07T02:00:52;52.17;;;29.47;;
62788;SDS011;66401;42.016;21.454;2023-12-07T02:03:18;47.60;;;26.77;;
62788;SDS011;66401;42.016;21.454;2023-12-07T02:05:50;50.60;;;27.50;;
62788;SDS011;66401;42.016;21.454;2023-12-07T02:08:16;52.00;;;26.60;;
62788;SDS011;66401;42.016;21.454;2023-12-07T02:10:42;52.33;;;28.17;;
62788;SDS011;66401;42.016;21.454;2023-12-07T02:13:07;45.60;;;26.77;;
62788;SDS011;66401;42.016;21.454;2023-12-07T02:15:34;51.40;;;27.13;;
62788;SDS011;66401;42.016;21.454;2023-12-07T02:18:14;48.90;;;26.43;;
62788;SDS011;66401;42.016;21.454;2023-12-07T02:23:31;51.80;;;25.90;;
62788;SDS011;66401;42.016;21.454;2023-12-07T02:29:14;49.57;;;25.80;;
62788;SDS011;66401;42.016;21.454;2023-12-07T02:31:40;45.23;;;26.07;;
62788;SDS011;66401;42.016;21.454;2023-12-07T02:34:06;53.47;;;25.80;;
62788;SDS011;66401;42.016;21.454;2023-12-07T02:36:32;48.13;;;26.27;;
62788;SDS011;66401;42.016;21.454;2023-12-07T02:39:00;54.83;;;27.80;;
62788;SDS011;66401;42.016;21.454;2023-12-07T02:41:28;48.43;;;26.83;;
62788;SDS011;66401;42.016;21.454;2023-12-07T02:43:59;50.33;;;26.27;;
62788;SDS011;66401;42.016;21.454;2023-12-07T02:46:26;51.17;;;28.10;;
62788;SDS011;66401;42.016;21.454;2023-12-07T02:48:51;44.33;;;25.93;;
62788;SDS011;66401;42.016;21.454;2023-12-07T02:51:17;45.93;;;26.83;;
62788;SDS011;66401;42.016;21.454;2023-12-07T02:53:43;52.40;;;26.37;;
62788;SDS011;66401;42.016;21.454;2023-12-07T02:56:09;51.93;;;27.80;;
62788;SDS011;66401;42.016;21.454;2023-12-07T02:58:34;52.90;;;27.60;;
62788;SDS011;66401;42.016;21.454;2023-12-07T03:01:00;49.93;;;26.43;;
62788;SDS011;66401;42.016;21.454;2023-12-07T03:03:25;48.43;;;27.23;;
62788;SDS011;66401;42.016;21.454;2023-12-07T03:05:51;49.73;;;27.40;;
62788;SDS011;66401;42.016;21.454;2023-12-07T03:08:16;46.87;;;26.43;;
62788;SDS011;66401;42.016;21.454;2023-12-07T03:10:42;49.13;;;26.63;;
62788;SDS011;66401;42.016;21.454;2023-12-07T03:13:07;48.47;;;25.93;;
62788;SDS011;66401;42.016;21.454;2023-12-07T03:15:33;50.30;;;24.60;;
62788;SDS011;66401;42.016;21.454;2023-12-07T03:17:59;52.63;;;25.23;;
62788;SDS011;66401;42.016;21.454;2023-12-07T03:20:24;46.17;;;24.63;;
62788;SDS011;66401;42.016;21.454;2023-12-07T03:22:50;57.03;;;28.17;;
62788;SDS011;66401;42.016;21.454;2023-12-07T03:25:15;48.97;;;27.73;;
62788;SDS011;66401;42.016;21.454;2023-12-07T03:27:40;47.43;;;27.50;;
62788;SDS011;66401;42.016;21.454;2023-12-07T03:30:06;52.30;;;26.87;;
62788;SDS011;66401;42.016;21.454;2023-12-07T03:32:32;48.23;;;24.40;;
62788;SDS011;66401;42.016;21.454;2023-12-07T03:34:57;45.20;;;26.20;;
62788;SDS011;66401;42.016;21.454;2023-12-07T03:37:23;45.80;;;25.53;;
62788;SDS011;66401;42.016;21.454;2023-12-07T03:39:48;47.73;;;25.00;;
62788;SDS011;66401;42.016;21.454;2023-12-07T03:42:14;47.93;;;24.97;;
62788;SDS011;66401;42.016;21.454;2023-12-07T03:44:39;45.27;;;23.87;;
62788;SDS011;66401;42.016;21.454;2023-12-07T03:47:05;39.27;;;22.27;;
62788;SDS011;66401;42.016;21.454;2023-12-07T03:49:30;38.90;;;21.77;;
62788;SDS011;66401;42.016;21.454;2023-12-07T03:51:56;47.13;;;22.67;;
62788;SDS011;66401;42.016;21.454;2023-12-07T03:54:21;36.23;;;21.67;;
62788;SDS011;66401;42.016;21.454;2023-12-07T03:56:47;41.07;;;21.73;;
62788;SDS011;66401;42.016;21.454;2023-12-07T03:59:12;40.87;;;24.07;;
62788;SDS011;66401;42.016;21.454;2023-12-07T04:01:38;37.00;;;21.33;;
62788;SDS011;66401;42.016;21.454;2023-12-07T04:04:04;41.43;;;23.10;;
62788;SDS011;66401;42.016;21.454;2023-12-07T04:06:30;42.63;;;22.53;;
62788;SDS011;66401;42.016;21.454;2023-12-07T04:08:55;40.30;;;22.77;;
62788;SDS011;66401;42.016;21.454;2023-12-07T04:11:21;45.77;;;22.00;;
62788;SDS011;66401;42.016;21.454;2023-12-07T04:13:47;40.37;;;21.57;;
62788;SDS011;66401;42.016;21.454;2023-12-07T04:16:13;42.30;;;23.17;;
62788;SDS011;66401;42.016;21.454;2023-12-07T04:18:38;45.53;;;22.83;;
62788;SDS011;66401;42.016;21.454;2023-12-07T04:21:04;39.83;;;22.53;;
62788;SDS011;66401;42.016;21.454;2023-12-07T04:23:30;47.90;;;22.83;;
62788;SDS011;66401;42.016;21.454;2023-12-07T04:25:56;51.40;;;24.70;;
62788;SDS011;66401;42.016;21.454;2023-12-07T04:28:21;44.43;;;23.60;;
62788;SDS011;66401;42.016;21.454;2023-12-07T04:30:47;44.77;;;23.83;;
62788;SDS011;66401;42.016;21.454;2023-12-07T04:33:12;41.53;;;23.37;;
62788;SDS011;66401;42.016;21.454;2023-12-07T04:35:38;41.27;;;24.47;;
62788;SDS011;66401;42.016;21.454;2023-12-07T04:38:03;44.37;;;26.00;;
62788;SDS011;66401;42.016;21.454;2023-12-07T04:40:29;51.60;;;24.67;;
62788;SDS011;66401;42.016;21.454;2023-12-07T04:42:54;46.20;;;24.43;;
62788;SDS011;66401;42.016;21.454;2023-12-07T04:45:20;45.13;;;25.30;;
62788;SDS011;66401;42.016;21.454;2023-12-07T04:47:45;52.53;;;26.03;;
62788;SDS011;66401;42.016;21.454;2023-12-07T04:50:11;41.90;;;25.17;;
62788;SDS011;66401;42.016;21.454;2023-12-07T04:52:37;43.03;;;24.37;;
62788;SDS011;66401;42.016;21.454;2023-12-07T04:55:03;43.07;;;23.30;;
62788;SDS011;66401;42.016;21.454;2023-12-07T04:57:31;40.20;;;22.23;;
62788;SDS011;66401;42.016;21.454;2023-12-07T04:59:58;41.13;;;22.67;;
62788;SDS011;66401;42.016;21.454;2023-12-07T05:02:23;44.80;;;21.93;;
62788;SDS011;66401;42.016;21.454;2023-12-07T05:04:49;38.93;;;23.10;;
62788;SDS011;66401;42.016;21.454;2023-12-07T05:07:14;50.07;;;24.37;;
62788;SDS011;66401;42.016;21.454;2023-12-07T05:09:40;37.53;;;21.73;;
62788;SDS011;66401;42.016;21.454;2023-12-07T05:12:06;44.60;;;22.77;;
62788;SDS011;66401;42.016;21.454;2023-12-07T05:14:32;44.53;;;23.67;;
62788;SDS011;66401;42.016;21.454;2023-12-07T05:16:57;46.00;;;23.90;;
62788;SDS011;66401;42.016;21.454;2023-12-07T05:19:23;48.47;;;25.00;;
62788;SDS011;66401;42.016;21.454;2023-12-07T05:21:53;49.07;;;24.93;;
62788;SDS011;66401;42.016;21.454;2023-12-07T05:24:18;41.83;;;22.40;;
62788;SDS011;66401;42.016;21.454;2023-12-07T05:26:45;43.83;;;23.37;;
62788;SDS011;66401;42.016;21.454;2023-12-07T05:29:11;45.67;;;23.30;;
62788;SDS011;66401;42.016;21.454;2023-12-07T05:31:37;49.13;;;22.97;;
62788;SDS011;66401;42.016;21.454;2023-12-07T05:34:03;39.03;;;21.60;;
62788;SDS011;66401;42.016;21.454;2023-12-07T05:36:29;38.97;;;21.73;;
62788;SDS011;66401;42.016;21.454;2023-12-07T05:38:55;45.17;;;19.77;;
62788;SDS011;66401;42.016;21.454;2023-12-07T05:41:20;33.73;;;17.17;;
62788;SDS011;66401;42.016;21.454;2023-12-07T05:43:45;32.87;;;17.13;;
62788;SDS011;66401;42.016;21.454;2023-12-07T05:46:11;26.67;;;14.40;;
62788;SDS011;66401;42.016;21.454;2023-12-07T05:48:37;26.50;;;14.03;;
62788;SDS011;66401;42.016;21.454;2023-12-07T05:51:03;27.93;;;13.73;;
62788;SDS011;66401;42.016;21.454;2023-12-07T05:53:28;24.97;;;13.23;;
62788;SDS011;66401;42.016;21.454;2023-12-07T05:55:54;23.57;;;13.10;;
62788;SDS011;66401;42.016;21.454;2023-12-07T05:58:20;26.87;;;13.13;;
62788;SDS011;66401;42.016;21.454;2023-12-07T06:00:45;27.77;;;13.23;;
62788;SDS011;66401;42.016;21.454;2023-12-07T06:03:12;25.97;;;13.77;;
62788;SDS011;66401;42.016;21.454;2023-12-07T06:05:38;23.23;;;13.37;;
62788;SDS011;66401;42.016;21.454;2023-12-07T06:08:05;25.53;;;13.60;;
62788;SDS011;66401;42.016;21.454;2023-12-07T06:10:30;22.37;;;13.70;;
62788;SDS011;66401;42.016;21.454;2023-12-07T06:12:56;27.73;;;13.30;;
62788;SDS011;66401;42.016;21.454;2023-12-07T06:15:29;21.90;;;12.50;;
62788;SDS011;66401;42.016;21.454;2023-12-07T06:17:55;35.77;;;14.90;;
62788;SDS011;66401;42.016;21.454;2023-12-07T06:20:22;27.63;;;12.33;;
62788;SDS011;66401;42.016;21.454;2023-12-07T06:22:47;23.07;;;12.60;;
62788;SDS011;66401;42.016;21.454;2023-12-07T06:25:13;26.63;;;12.77;;
62788;SDS011;66401;42.016;21.454;2023-12-07T06:27:39;25.97;;;11.87;;
62788;SDS011;66401;42.016;21.454;2023-12-07T06:30:05;20.63;;;11.43;;
62788;SDS011;66401;42.016;21.454;2023-12-07T06:32:31;22.67;;;11.37;;
62788;SDS011;66401;42.016;21.454;2023-12-07T06:34:57;19.27;;;9.67;;
62788;SDS011;66401;42.016;21.454;2023-12-07T06:37:23;20.13;;;10.10;;
62788;SDS011;66401;42.016;21.454;2023-12-07T06:39:48;16.47;;;9.47;;
62788;SDS011;66401;42.016;21.454;2023-12-07T06:42:14;17.07;;;10.37;;
62788;SDS011;66401;42.016;21.454;2023-12-07T06:44:40;20.07;;;10.63;;
62788;SDS011;66401;42.016;21.454;2023-12-07T06:47:08;21.57;;;10.17;;
62788;SDS011;66401;42.016;21.454;2023-12-07T06:49:33;16.00;;;9.67;;
62788;SDS011;66401;42.016;21.454;2023-12-07T06:51:59;19.93;;;9.40;;
62788;SDS011;66401;42.016;21.454;2023-12-07T06:54:24;19.20;;;9.30;;
62788;SDS011;66401;42.016;21.454;2023-12-07T06:56:50;15.70;;;8.47;;
62788;SDS011;66401;42.016;21.454;2023-12-07T06:59:15;13.70;;;8.17;;
62788;SDS011;66401;42.016;21.454;2023-12-07T07:01:41;14.17;;;8.43;;
62788;SDS011;66401;42.016;21.454;2023-12-07T07:04:06;17.27;;;7.87;;
62788;SDS011;66401;42.016;21.454;2023-12-07T07:06:33;10.73;;;6.83;;
62788;SDS011;66401;42.016;21.454;2023-12-07T07:09:00;14.03;;;6.87;;
62788;SDS011;66401;42.016;21.454;2023-12-07T07:11:25;10.27;;;6.43;;
62788;SDS011;66401;42.016;21.454;2023-12-07T07:13:51;10.20;;;5.73;;
62788;SDS011;66401;42.016;21.454;2023-12-07T07:16:16;7.53;;;5.23;;
62788;SDS011;66401;42.016;21.454;2023-12-07T07:18:42;10.57;;;6.03;;
62788;SDS011;66401;42.016;21.454;2023-12-07T07:21:07;8.67;;;5.43;;
62788;SDS011;66401;42.016;21.454;2023-12-07T07:23:34;6.53;;;4.70;;
62788;SDS011;66401;42.016;21.454;2023-12-07T07:26:00;7.97;;;5.60;;
62788;SDS011;66401;42.016;21.454;2023-12-07T07:28:25;7.27;;;5.23;;
62788;SDS011;66401;42.016;21.454;2023-12-07T07:30:51;8.67;;;5.30;;
62788;SDS011;66401;42.016;21.454;2023-12-07T07:33:18;7.20;;;4.40;;
62788;SDS011;66401;42.016;21.454;2023-12-07T07:35:43;6.80;;;5.20;;
62788;SDS011;66401;42.016;21.454;2023-12-07T07:38:09;7.47;;;4.20;;
62788;SDS011;66401;42.016;21.454;2023-12-07T07:40:34;5.63;;;4.43;;
62788;SDS011;66401;42.016;21.454;2023-12-07T07:43:01;7.03;;;4.63;;
62788;SDS011;66401;42.016;21.454;2023-12-07T07:45:26;5.50;;;4.20;;
62788;SDS011;66401;42.016;21.454;2023-12-07T07:47:51;4.93;;;3.70;;
62788;SDS011;66401;42.016;21.454;2023-12-07T07:50:17;4.97;;;4.47;;
62788;SDS011;66401;42.016;21.454;2023-12-07T07:52:42;5.83;;;4.20;;
62788;SDS011;66401;42.016;21.454;2023-12-07T07:55:09;5.43;;;3.53;;
62788;SDS011;66401;42.016;21.454;2023-12-07T07:57:35;6.50;;;4.40;;
62788;SDS011;66401;42.016;21.454;2023-12-07T08:00:01;9.80;;;4.50;;
62788;SDS011;66401;42.016;21.454;2023-12-07T08:02:26;6.17;;;4.03;;
62788;SDS011;66401;42.016;21.454;2023-12-07T08:04:52;7.17;;;4.23;;
62788;SDS011;66401;42.016;21.454;2023-12-07T08:07:17;6.17;;;4.20;;
62788;SDS011;66401;42.016;21.454;2023-12-07T08:09:43;5.30;;;4.43;;
62788;SDS011;66401;42.016;21.454;2023-12-07T08:12:09;5.50;;;4.67;;
62788;SDS011;66401;42.016;21.454;2023-12-07T08:14:35;8.03;;;4.87;;
62788;SDS011;66401;42.016;21.454;2023-12-07T08:17:01;6.53;;;4.90;;
62788;SDS011;66401;42.016;21.454;2023-12-07T08:19:27;7.93;;;4.40;;
62788;SDS011;66401;42.016;21.454;2023-12-07T08:21:53;9.40;;;4.80;;
62788;SDS011;66401;42.016;21.454;2023-12-07T08:24:19;6.80;;;4.43;;
62788;SDS011;66401;42.016;21.454;2023-12-07T08:26:44;4.77;;;4.20;;
62788;SDS011;66401;42.016;21.454;2023-12-07T08:29:10;5.10;;;4.50;;
62788;SDS011;66401;42.016;21.454;2023-12-07T08:31:35;5.73;;;4.87;;
62788;SDS011;66401;42.016;21.454;2023-12-07T08:34:01;10.70;;;5.23;;
62788;SDS011;66401;42.016;21.454;2023-12-07T08:36:26;8.27;;;4.93;;
62788;SDS011;66401;42.016;21.454;2023-12-07T08:38:52;7.90;;;5.23;;
62788;SDS011;66401;42.016;21.454;2023-12-07T08:41:19;7.93;;;5.60;;
62788;SDS011;66401;42.016;21.454;2023-12-07T08:43:44;5.60;;;4.50;;
62788;SDS011;66401;42.016;21.454;2023-12-07T08:46:10;5.37;;;4.87;;
62788;SDS011;66401;42.016;21.454;2023-12-07T08:48:36;5.97;;;4.73;;
62788;SDS011;66401;42.016;21.454;2023-12-07T08:51:02;5.80;;;4.60;;
62788;SDS011;66401;42.016;21.454;2023-12-07T08:53:28;6.80;;;4.77;;
62788;SDS011;66401;42.016;21.454;2023-12-07T08:55:54;10.30;;;4.60;;
62788;SDS011;66401;42.016;21.454;2023-12-07T08:58:19;7.20;;;4.60;;
62788;SDS011;66401;42.016;21.454;2023-12-07T09:00:46;7.97;;;4.77;;
62788;SDS011;66401;42.016;21.454;2023-12-07T09:03:11;6.80;;;4.80;;
62788;SDS011;66401;42.016;21.454;2023-12-07T09:05:37;6.60;;;5.63;;
62788;SDS011;66401;42.016;21.454;2023-12-07T09:08:02;10.47;;;7.13;;
62788;SDS011;66401;42.016;21.454;2023-12-07T09:10:28;13.23;;;6.83;;
62788;SDS011;66401;42.016;21.454;2023-12-07T09:12:54;11.03;;;6.90;;
62788;SDS011;66401;42.016;21.454;2023-12-07T09:15:19;13.47;;;6.70;;
62788;SDS011;66401;42.016;21.454;2023-12-07T09:17:54;12.73;;;6.33;;
62788;SDS011;66401;42.016;21.454;2023-12-07T09:20:19;8.57;;;6.10;;
62788;SDS011;66401;42.016;21.454;2023-12-07T09:22:46;7.20;;;5.23;;
62788;SDS011;66401;42.016;21.454;2023-12-07T09:25:12;6.97;;;5.20;;
62788;SDS011;66401;42.016;21.454;2023-12-07T09:27:40;6.80;;;5.10;;
62788;SDS011;66401;42.016;21.454;2023-12-07T09:30:07;6.57;;;4.93;;
62788;SDS011;66401;42.016;21.454;2023-12-07T09:32:36;9.23;;;5.20;;
62788;SDS011;66401;42.016;21.454;2023-12-07T09:35:04;6.57;;;5.07;;
62788;SDS011;66401;42.016;21.454;2023-12-07T09:37:32;6.57;;;5.07;;
62788;SDS011;66401;42.016;21.454;2023-12-07T09:39:58;5.40;;;4.77;;
62788;SDS011;66401;42.016;21.454;2023-12-07T09:42:29;6.83;;;5.67;;
62788;SDS011;66401;42.016;21.454;2023-12-07T09:44:58;7.03;;;5.07;;
62788;SDS011;66401;42.016;21.454;2023-12-07T09:47:26;6.80;;;5.47;;
62788;SDS011;66401;42.016;21.454;2023-12-07T09:49:56;6.43;;;4.63;;
62788;SDS011;66401;42.016;21.454;2023-12-07T09:52:25;6.93;;;4.83;;
62788;SDS011;66401;42.016;21.454;2023-12-07T09:54:54;5.43;;;4.43;;
62788;SDS011;66401;42.016;21.454;2023-12-07T09:57:21;4.93;;;4.07;;
62788;SDS011;66401;42.016;21.454;2023-12-07T09:59:47;5.97;;;4.73;;
62788;SDS011;66401;42.016;21.454;2023-12-07T10:02:13;4.70;;;4.23;;
62788;SDS011;66401;42.016;21.454;2023-12-07T10:04:39;5.00;;;4.50;;
62788;SDS011;66401;42.016;21.454;2023-12-07T10:07:05;4.90;;;4.37;;
62788;SDS011;66401;42.016;21.454;2023-12-07T10:09:34;5.70;;;4.63;;
62788;SDS011;66401;42.016;21.454;2023-12-07T10:12:06;7.83;;;4.80;;
62788;SDS011;66401;42.016;21.454;2023-12-07T10:14:32;6.33;;;4.63;;
62788;SDS011;66401;42.016;21.454;2023-12-07T10:16:58;4.60;;;4.13;;
62788;SDS011;66401;42.016;21.454;2023-12-07T10:19:25;4.90;;;3.97;;
62788;SDS011;66401;42.016;21.454;2023-12-07T10:21:52;3.50;;;3.20;;
62788;SDS011;66401;42.016;21.454;2023-12-07T10:24:19;3.87;;;3.50;;
62788;SDS011;66401;42.016;21.454;2023-12-07T10:26:45;5.03;;;3.43;;
62788;SDS011;66401;42.016;21.454;2023-12-07T10:29:12;4.30;;;3.73;;
62788;SDS011;66401;42.016;21.454;2023-12-07T10:31:38;5.03;;;3.60;;
62788;SDS011;66401;42.016;21.454;2023-12-07T10:34:04;4.60;;;3.73;;
62788;SDS011;66401;42.016;21.454;2023-12-07T10:36:30;5.17;;;3.83;;
62788;SDS011;66401;42.016;21.454;2023-12-07T10:38:56;4.43;;;3.80;;
62788;SDS011;66401;42.016;21.454;2023-12-07T10:41:22;5.03;;;3.63;;
62788;SDS011;66401;42.016;21.454;2023-12-07T10:43:52;5.20;;;4.47;;
62788;SDS011;66401;42.016;21.454;2023-12-07T10:46:20;5.10;;;4.30;;
62788;SDS011;66401;42.016;21.454;2023-12-07T10:48:51;4.30;;;3.90;;
62788;SDS011;66401;42.016;21.454;2023-12-07T10:54:16;5.40;;;4.73;;
62788;SDS011;66401;42.016;21.454;2023-12-07T10:56:47;6.30;;;4.73;;
62788;SDS011;66401;42.016;21.454;2023-12-07T10:59:15;5.03;;;4.43;;
62788;SDS011;66401;42.016;21.454;2023-12-07T11:01:42;6.87;;;4.77;;
62788;SDS011;66401;42.016;21.454;2023-12-07T11:04:12;5.57;;;4.20;;
62788;SDS011;66401;42.016;21.454;2023-12-07T11:06:42;5.67;;;4.90;;
62788;SDS011;66401;42.016;21.454;2023-12-07T11:09:16;5.80;;;4.43;;
62788;SDS011;66401;42.016;21.454;2023-12-07T11:11:48;6.70;;;4.50;;
62788;SDS011;66401;42.016;21.454;2023-12-07T11:14:22;5.20;;;4.70;;
62788;SDS011;66401;42.016;21.454;2023-12-07T11:16:48;8.10;;;5.27;;
62788;SDS011;66401;42.016;21.454;2023-12-07T11:22:01;5.57;;;4.37;;
62788;SDS011;66401;42.016;21.454;2023-12-07T11:24:31;7.33;;;5.17;;
62788;SDS011;66401;42.016;21.454;2023-12-07T11:26:57;6.77;;;5.67;;
62788;SDS011;66401;42.016;21.454;2023-12-07T11:29:28;6.13;;;4.93;;
62788;SDS011;66401;42.016;21.454;2023-12-07T11:31:56;8.03;;;6.50;;
62788;SDS011;66401;42.016;21.454;2023-12-07T11:34:41;9.77;;;6.20;;
62788;SDS011;66401;42.016;21.454;2023-12-07T11:37:08;9.10;;;5.73;;
62788;SDS011;66401;42.016;21.454;2023-12-07T11:39:35;6.10;;;4.83;;
62788;SDS011;66401;42.016;21.454;2023-12-07T11:42:10;7.73;;;5.13;;
62788;SDS011;66401;42.016;21.454;2023-12-07T11:44:43;8.30;;;5.63;;
62788;SDS011;66401;42.016;21.454;2023-12-07T11:47:17;7.57;;;6.20;;
62788;SDS011;66401;42.016;21.454;2023-12-07T11:49:44;7.93;;;6.53;;
62788;SDS011;66401;42.016;21.454;2023-12-07T11:52:20;11.03;;;7.93;;
62788;SDS011;66401;42.016;21.454;2023-12-07T11:54:46;11.97;;;8.23;;
62788;SDS011;66401;42.016;21.454;2023-12-07T11:57:16;9.07;;;6.60;;
62788;SDS011;66401;42.016;21.454;2023-12-07T11:59:45;7.83;;;6.93;;
62788;SDS011;66401;42.016;21.454;2023-12-07T12:02:13;9.77;;;7.33;;
62788;SDS011;66401;42.016;21.454;2023-12-07T12:04:42;8.80;;;7.10;;
62788;SDS011;66401;42.016;21.454;2023-12-07T12:07:08;9.80;;;6.47;;
62788;SDS011;66401;42.016;21.454;2023-12-07T12:09:34;8.43;;;5.83;;
62788;SDS011;66401;42.016;21.454;2023-12-07T12:11:59;8.60;;;5.90;;
62788;SDS011;66401;42.016;21.454;2023-12-07T12:14:25;9.47;;;5.73;;
62788;SDS011;66401;42.016;21.454;2023-12-07T12:16:52;8.97;;;5.50;;
62788;SDS011;66401;42.016;21.454;2023-12-07T12:19:18;8.23;;;6.83;;
62788;SDS011;66401;42.016;21.454;2023-12-07T12:21:45;9.57;;;7.20;;
62788;SDS011;66401;42.016;21.454;2023-12-07T12:24:11;10.67;;;6.93;;
62788;SDS011;66401;42.016;21.454;2023-12-07T12:26:39;13.30;;;7.67;;
62788;SDS011;66401;42.016;21.454;2023-12-07T12:29:06;10.70;;;7.63;;
62788;SDS011;66401;42.016;21.454;2023-12-07T12:31:34;13.93;;;7.03;;
62788;SDS011;66401;42.016;21.454;2023-12-07T12:34:05;8.40;;;6.67;;
62788;SDS011;66401;42.016;21.454;2023-12-07T12:36:33;9.60;;;6.17;;
62788;SDS011;66401;42.016;21.454;2023-12-07T12:38:59;13.87;;;6.90;;
62788;SDS011;66401;42.016;21.454;2023-12-07T12:41:27;9.37;;;6.93;;
62788;SDS011;66401;42.016;21.454;2023-12-07T12:43:55;7.57;;;6.77;;
62788;SDS011;66401;42.016;21.454;2023-12-07T12:46:22;10.53;;;7.03;;
62788;SDS011;66401;42.016;21.454;2023-12-07T12:48:58;9.47;;;6.47;;
62788;SDS011;66401;42.016;21.454;2023-12-07T12:51:26;8.43;;;6.67;;
62788;SDS011;66401;42.016;21.454;2023-12-07T12:53:52;8.03;;;6.47;;
62788;SDS011;66401;42.016;21.454;2023-12-07T12:56:19;6.47;;;5.50;;
62788;SDS011;66401;42.016;21.454;2023-12-07T12:58:46;7.87;;;6.00;;
62788;SDS011;66401;42.016;21.454;2023-12-07T13:01:15;11.73;;;7.00;;
62788;SDS011;66401;42.016;21.454;2023-12-07T13:03:43;7.30;;;6.30;;
62788;SDS011;66401;42.016;21.454;2023-12-07T13:06:14;8.13;;;6.47;;
62788;SDS011;66401;42.016;21.454;2023-12-07T13:08:43;8.90;;;6.27;;
62788;SDS011;66401;42.016;21.454;2023-12-07T13:11:09;11.33;;;6.67;;
62788;SDS011;66401;42.016;21.454;2023-12-07T13:13:34;12.80;;;7.43;;
62788;SDS011;66401;42.016;21.454;2023-12-07T13:16:00;11.00;;;6.70;;
62788;SDS011;66401;42.016;21.454;2023-12-07T13:18:26;8.50;;;6.47;;
62788;SDS011;66401;42.016;21.454;2023-12-07T13:20:51;10.37;;;7.20;;
62788;SDS011;66401;42.016;21.454;2023-12-07T13:23:17;14.07;;;8.73;;
62788;SDS011;66401;42.016;21.454;2023-12-07T13:25:42;13.63;;;7.90;;
62788;SDS011;66401;42.016;21.454;2023-12-07T13:28:08;21.23;;;10.43;;
62788;SDS011;66401;42.016;21.454;2023-12-07T13:30:36;15.93;;;10.27;;
62788;SDS011;66401;42.016;21.454;2023-12-07T13:33:02;17.77;;;9.27;;
62788;SDS011;66401;42.016;21.454;2023-12-07T13:35:28;14.43;;;8.63;;
62788;SDS011;66401;42.016;21.454;2023-12-07T13:37:54;9.33;;;7.33;;
62788;SDS011;66401;42.016;21.454;2023-12-07T13:40:20;15.00;;;8.30;;
62788;SDS011;66401;42.016;21.454;2023-12-07T13:42:45;11.47;;;7.13;;
62788;SDS011;66401;42.016;21.454;2023-12-07T13:45:11;13.13;;;7.13;;
62788;SDS011;66401;42.016;21.454;2023-12-07T13:47:36;10.27;;;7.17;;
62788;SDS011;66401;42.016;21.454;2023-12-07T13:50:03;9.33;;;6.20;;
62788;SDS011;66401;42.016;21.454;2023-12-07T13:52:30;8.17;;;6.63;;
62788;SDS011;66401;42.016;21.454;2023-12-07T13:54:57;10.13;;;6.87;;
62788;SDS011;66401;42.016;21.454;2023-12-07T13:57:23;9.30;;;7.40;;
62788;SDS011;66401;42.016;21.454;2023-12-07T13:59:52;10.33;;;6.90;;
62788;SDS011;66401;42.016;21.454;2023-12-07T14:02:18;12.20;;;8.00;;
62788;SDS011;66401;42.016;21.454;2023-12-07T14:04:44;14.07;;;9.27;;
62788;SDS011;66401;42.016;21.454;2023-12-07T14:09:37;12.63;;;8.73;;
62788;SDS011;66401;42.016;21.454;2023-12-07T14:12:05;18.87;;;10.63;;
62788;SDS011;66401;42.016;21.454;2023-12-07T14:14:30;16.10;;;9.57;;
62788;SDS011;66401;42.016;21.454;2023-12-07T14:16:56;14.50;;;10.13;;
62788;SDS011;66401;42.016;21.454;2023-12-07T14:19:22;12.17;;;8.87;;
62788;SDS011;66401;42.016;21.454;2023-12-07T14:21:48;12.63;;;9.07;;
62788;SDS011;66401;42.016;21.454;2023-12-07T14:24:13;15.87;;;9.23;;
62788;SDS011;66401;42.016;21.454;2023-12-07T14:26:42;16.47;;;9.40;;
62788;SDS011;66401;42.016;21.454;2023-12-07T14:29:09;15.07;;;9.80;;
62788;SDS011;66401;42.016;21.454;2023-12-07T14:31:40;13.13;;;10.10;;